sensor_id;sensor_type;location;lat;lon;timestamp;P1;durP1;ratioP1;P2;durP2;ratioP2
59770;SDS011;45649;53.014;6.600;2023-08-30T00:00:17;13.43;;;12.30;;
59770;SDS011;45649;53.014;6.600;2023-08-30T00:02:43;12.73;;;11.63;;
59770;SDS011;45649;53.014;6.600;2023-08-30T00:05:10;13.07;;;11.97;;
59770;SDS011;45649;53.014;6.600;2023-08-30T00:07:36;12.80;;;11.80;;
59770;SDS011;45649;53.014;6.600;2023-08-30T00:10:05;12.57;;;11.57;;
59770;SDS011;45649;53.014;6.600;2023-08-30T00:12:35;12.93;;;11.83;;
59770;SDS011;45649;53.014;6.600;2023-08-30T00:15:01;12.87;;;11.77;;
59770;SDS011;45649;53.014;6.600;2023-08-30T00:17:30;12.90;;;11.70;;
59770;SDS011;45649;53.014;6.600;2023-08-30T00:19:56;13.20;;;12.00;;
59770;SDS011;45649;53.014;6.600;2023-08-30T00:22:25;12.97;;;11.87;;
59770;SDS011;45649;53.014;6.600;2023-08-30T00:24:52;12.30;;;11.40;;
59770;SDS011;45649;53.014;6.600;2023-08-30T00:27:21;13.47;;;12.33;;
59770;SDS011;45649;53.014;6.600;2023-08-30T00:29:47;14.00;;;12.80;;
59770;SDS011;45649;53.014;6.600;2023-08-30T00:32:13;13.63;;;12.47;;
59770;SDS011;45649;53.014;6.600;2023-08-30T00:34:39;13.53;;;12.33;;
59770;SDS011;45649;53.014;6.600;2023-08-30T00:37:05;14.20;;;13.10;;
59770;SDS011;45649;53.014;6.600;2023-08-30T00:39:33;14.07;;;12.97;;
59770;SDS011;45649;53.014;6.600;2023-08-30T00:41:59;14.57;;;13.13;;
59770;SDS011;45649;53.014;6.600;2023-08-30T00:44:30;14.77;;;13.67;;
59770;SDS011;45649;53.014;6.600;2023-08-30T00:46:56;14.13;;;13.03;;
59770;SDS011;45649;53.014;6.600;2023-08-30T00:49:22;14.90;;;13.70;;
59770;SDS011;45649;53.014;6.600;2023-08-30T00:51:48;15.23;;;13.93;;
59770;SDS011;45649;53.014;6.600;2023-08-30T00:54:14;15.37;;;14.07;;
59770;SDS011;45649;53.014;6.600;2023-08-30T00:56:41;15.07;;;13.87;;
59770;SDS011;45649;53.014;6.600;2023-08-30T00:59:07;15.17;;;13.87;;
59770;SDS011;45649;53.014;6.600;2023-08-30T01:01:33;15.20;;;13.93;;
59770;SDS011;45649;53.014;6.600;2023-08-30T01:03:59;15.67;;;14.37;;
59770;SDS011;45649;53.014;6.600;2023-08-30T01:06:25;16.10;;;14.77;;
59770;SDS011;45649;53.014;6.600;2023-08-30T01:08:51;16.40;;;14.90;;
59770;SDS011;45649;53.014;6.600;2023-08-30T01:13:45;16.20;;;14.80;;
59770;SDS011;45649;53.014;6.600;2023-08-30T01:16:13;17.20;;;15.77;;
59770;SDS011;45649;53.014;6.600;2023-08-30T01:18:42;16.20;;;14.77;;
59770;SDS011;45649;53.014;6.600;2023-08-30T01:21:09;16.90;;;15.40;;
59770;SDS011;45649;53.014;6.600;2023-08-30T01:23:54;16.30;;;14.90;;
59770;SDS011;45649;53.014;6.600;2023-08-30T01:26:30;15.57;;;14.33;;
59770;SDS011;45649;53.014;6.600;2023-08-30T01:29:02;16.50;;;15.10;;
59770;SDS011;45649;53.014;6.600;2023-08-30T01:31:29;16.47;;;15.07;;
59770;SDS011;45649;53.014;6.600;2023-08-30T01:33:58;16.47;;;15.00;;
59770;SDS011;45649;53.014;6.600;2023-08-30T01:36:24;15.37;;;14.07;;
59770;SDS011;45649;53.014;6.600;2023-08-30T01:38:51;15.77;;;14.47;;
59770;SDS011;45649;53.014;6.600;2023-08-30T01:41:18;15.30;;;14.10;;
59770;SDS011;45649;53.014;6.600;2023-08-30T01:43:44;14.77;;;13.47;;
59770;SDS011;45649;53.014;6.600;2023-08-30T01:46:12;14.77;;;13.57;;
59770;SDS011;45649;53.014;6.600;2023-08-30T01:48:38;14.63;;;13.33;;
59770;SDS011;45649;53.014;6.600;2023-08-30T01:51:05;13.20;;;12.07;;
59770;SDS011;45649;53.014;6.600;2023-08-30T01:53:32;14.20;;;12.70;;
59770;SDS011;45649;53.014;6.600;2023-08-30T01:55:58;14.23;;;12.93;;
59770;SDS011;45649;53.014;6.600;2023-08-30T01:58:24;12.80;;;11.70;;
59770;SDS011;45649;53.014;6.600;2023-08-30T02:00:50;12.47;;;11.47;;
59770;SDS011;45649;53.014;6.600;2023-08-30T02:03:16;12.97;;;11.87;;
59770;SDS011;45649;53.014;6.600;2023-08-30T02:08:32;13.57;;;12.40;;
59770;SDS011;45649;53.014;6.600;2023-08-30T02:11:01;13.47;;;12.23;;
59770;SDS011;45649;53.014;6.600;2023-08-30T02:13:28;12.70;;;11.70;;
59770;SDS011;45649;53.014;6.600;2023-08-30T02:15:56;13.00;;;11.90;;
59770;SDS011;45649;53.014;6.600;2023-08-30T02:18:23;14.40;;;13.20;;
59770;SDS011;45649;53.014;6.600;2023-08-30T02:20:49;13.87;;;12.57;;
59770;SDS011;45649;53.014;6.600;2023-08-30T02:23:16;13.00;;;11.90;;
59770;SDS011;45649;53.014;6.600;2023-08-30T02:25:42;12.73;;;11.63;;
59770;SDS011;45649;53.014;6.600;2023-08-30T02:28:08;13.30;;;11.47;;
59770;SDS011;45649;53.014;6.600;2023-08-30T02:30:34;13.57;;;12.43;;
59770;SDS011;45649;53.014;6.600;2023-08-30T02:33:00;13.87;;;12.33;;
59770;SDS011;45649;53.014;6.600;2023-08-30T02:35:26;13.33;;;12.30;;
59770;SDS011;45649;53.014;6.600;2023-08-30T02:37:52;13.40;;;12.10;;
59770;SDS011;45649;53.014;6.600;2023-08-30T02:40:18;13.30;;;12.10;;
59770;SDS011;45649;53.014;6.600;2023-08-30T02:42:44;12.93;;;11.90;;
59770;SDS011;45649;53.014;6.600;2023-08-30T02:45:10;13.40;;;12.30;;
59770;SDS011;45649;53.014;6.600;2023-08-30T02:47:36;13.00;;;11.80;;
59770;SDS011;45649;53.014;6.600;2023-08-30T02:50:02;13.43;;;12.23;;
59770;SDS011;45649;53.014;6.600;2023-08-30T02:52:28;13.53;;;12.23;;
59770;SDS011;45649;53.014;6.600;2023-08-30T02:54:55;13.57;;;12.43;;
59770;SDS011;45649;53.014;6.600;2023-08-30T02:57:21;13.37;;;12.17;;
59770;SDS011;45649;53.014;6.600;2023-08-30T02:59:47;13.03;;;11.93;;
59770;SDS011;45649;53.014;6.600;2023-08-30T03:02:13;13.57;;;12.40;;
59770;SDS011;45649;53.014;6.600;2023-08-30T03:04:39;13.43;;;12.10;;
59770;SDS011;45649;53.014;6.600;2023-08-30T03:07:05;12.27;;;11.07;;
59770;SDS011;45649;53.014;6.600;2023-08-30T03:09:31;12.47;;;11.47;;
59770;SDS011;45649;53.014;6.600;2023-08-30T03:11:57;12.40;;;11.30;;
59770;SDS011;45649;53.014;6.600;2023-08-30T03:14:23;13.17;;;12.03;;
59770;SDS011;45649;53.014;6.600;2023-08-30T03:16:49;12.40;;;11.20;;
59770;SDS011;45649;53.014;6.600;2023-08-30T03:19:15;12.77;;;11.60;;
59770;SDS011;45649;53.014;6.600;2023-08-30T03:21:42;13.03;;;11.93;;
59770;SDS011;45649;53.014;6.600;2023-08-30T03:24:08;13.00;;;11.90;;
59770;SDS011;45649;53.014;6.600;2023-08-30T03:26:35;11.93;;;10.77;;
59770;SDS011;45649;53.014;6.600;2023-08-30T03:29:01;12.33;;;11.33;;
59770;SDS011;45649;53.014;6.600;2023-08-30T03:31:28;12.67;;;11.57;;
59770;SDS011;45649;53.014;6.600;2023-08-30T03:33:54;12.40;;;11.30;;
59770;SDS011;45649;53.014;6.600;2023-08-30T03:36:20;11.87;;;10.87;;
59770;SDS011;45649;53.014;6.600;2023-08-30T03:38:46;12.13;;;11.03;;
59770;SDS011;45649;53.014;6.600;2023-08-30T03:41:12;12.47;;;11.33;;
59770;SDS011;45649;53.014;6.600;2023-08-30T03:43:38;12.63;;;11.53;;
59770;SDS011;45649;53.014;6.600;2023-08-30T03:46:05;12.50;;;11.40;;
59770;SDS011;45649;53.014;6.600;2023-08-30T03:48:31;12.37;;;11.37;;
59770;SDS011;45649;53.014;6.600;2023-08-30T03:50:57;12.63;;;11.40;;
59770;SDS011;45649;53.014;6.600;2023-08-30T03:53:24;13.00;;;11.90;;
59770;SDS011;45649;53.014;6.600;2023-08-30T03:55:50;13.10;;;11.90;;
59770;SDS011;45649;53.014;6.600;2023-08-30T03:58:19;12.63;;;11.60;;
59770;SDS011;45649;53.014;6.600;2023-08-30T04:00:45;12.53;;;11.37;;
59770;SDS011;45649;53.014;6.600;2023-08-30T04:03:12;12.50;;;11.50;;
59770;SDS011;45649;53.014;6.600;2023-08-30T04:05:39;12.50;;;11.33;;
59770;SDS011;45649;53.014;6.600;2023-08-30T04:08:05;13.30;;;12.10;;
59770;SDS011;45649;53.014;6.600;2023-08-30T04:10:38;14.23;;;12.07;;
59770;SDS011;45649;53.014;6.600;2023-08-30T04:13:05;12.90;;;11.80;;
59770;SDS011;45649;53.014;6.600;2023-08-30T04:15:32;12.47;;;11.37;;
59770;SDS011;45649;53.014;6.600;2023-08-30T04:17:59;12.67;;;11.40;;
59770;SDS011;45649;53.014;6.600;2023-08-30T04:20:25;12.40;;;11.27;;
59770;SDS011;45649;53.014;6.600;2023-08-30T04:22:51;13.30;;;12.03;;
59770;SDS011;45649;53.014;6.600;2023-08-30T04:25:20;12.87;;;11.77;;
59770;SDS011;45649;53.014;6.600;2023-08-30T04:27:46;12.80;;;11.60;;
59770;SDS011;45649;53.014;6.600;2023-08-30T04:30:12;13.17;;;11.97;;
59770;SDS011;45649;53.014;6.600;2023-08-30T04:32:38;13.17;;;11.97;;
59770;SDS011;45649;53.014;6.600;2023-08-30T04:35:05;13.30;;;12.00;;
59770;SDS011;45649;53.014;6.600;2023-08-30T04:37:31;13.33;;;12.13;;
59770;SDS011;45649;53.014;6.600;2023-08-30T04:39:57;13.87;;;12.50;;
59770;SDS011;45649;53.014;6.600;2023-08-30T04:42:23;13.00;;;11.80;;
59770;SDS011;45649;53.014;6.600;2023-08-30T04:44:50;13.60;;;12.37;;
59770;SDS011;45649;53.014;6.600;2023-08-30T04:47:17;14.07;;;12.87;;
59770;SDS011;45649;53.014;6.600;2023-08-30T04:49:43;13.20;;;12.10;;
59770;SDS011;45649;53.014;6.600;2023-08-30T04:52:09;14.90;;;13.60;;
59770;SDS011;45649;53.014;6.600;2023-08-30T04:54:35;13.63;;;12.40;;
59770;SDS011;45649;53.014;6.600;2023-08-30T04:57:01;13.30;;;12.17;;
59770;SDS011;45649;53.014;6.600;2023-08-30T04:59:27;14.00;;;12.60;;
59770;SDS011;45649;53.014;6.600;2023-08-30T05:01:54;13.73;;;12.10;;
59770;SDS011;45649;53.014;6.600;2023-08-30T05:04:20;12.53;;;11.53;;
59770;SDS011;45649;53.014;6.600;2023-08-30T05:06:46;12.83;;;11.73;;
59770;SDS011;45649;53.014;6.600;2023-08-30T05:09:12;13.50;;;12.20;;
59770;SDS011;45649;53.014;6.600;2023-08-30T05:11:38;13.90;;;12.70;;
59770;SDS011;45649;53.014;6.600;2023-08-30T05:14:04;13.10;;;11.50;;
59770;SDS011;45649;53.014;6.600;2023-08-30T05:16:30;13.93;;;12.63;;
59770;SDS011;45649;53.014;6.600;2023-08-30T05:18:56;12.73;;;11.43;;
59770;SDS011;45649;53.014;6.600;2023-08-30T05:21:22;13.23;;;12.13;;
59770;SDS011;45649;53.014;6.600;2023-08-30T05:23:48;13.57;;;12.37;;
59770;SDS011;45649;53.014;6.600;2023-08-30T05:26:14;13.20;;;12.00;;
59770;SDS011;45649;53.014;6.600;2023-08-30T05:28:41;13.13;;;12.03;;
59770;SDS011;45649;53.014;6.600;2023-08-30T05:31:08;13.57;;;12.30;;
59770;SDS011;45649;53.014;6.600;2023-08-30T05:33:34;14.03;;;12.83;;
59770;SDS011;45649;53.014;6.600;2023-08-30T05:36:00;12.47;;;11.43;;
59770;SDS011;45649;53.014;6.600;2023-08-30T05:38:27;13.30;;;12.10;;
59770;SDS011;45649;53.014;6.600;2023-08-30T05:40:53;12.97;;;11.77;;
59770;SDS011;45649;53.014;6.600;2023-08-30T05:43:19;13.00;;;11.80;;
59770;SDS011;45649;53.014;6.600;2023-08-30T05:45:45;11.83;;;10.83;;
59770;SDS011;45649;53.014;6.600;2023-08-30T05:48:11;13.27;;;12.07;;
59770;SDS011;45649;53.014;6.600;2023-08-30T05:50:37;12.90;;;11.67;;
59770;SDS011;45649;53.014;6.600;2023-08-30T05:53:04;12.77;;;11.57;;
59770;SDS011;45649;53.014;6.600;2023-08-30T05:55:30;12.97;;;11.87;;
59770;SDS011;45649;53.014;6.600;2023-08-30T05:57:56;11.63;;;10.63;;
59770;SDS011;45649;53.014;6.600;2023-08-30T06:00:22;12.83;;;11.73;;
59770;SDS011;45649;53.014;6.600;2023-08-30T06:02:50;14.30;;;13.05;;
59770;SDS011;45649;53.014;6.600;2023-08-30T06:05:17;12.47;;;11.30;;
59770;SDS011;45649;53.014;6.600;2023-08-30T06:07:43;12.77;;;11.67;;
59770;SDS011;45649;53.014;6.600;2023-08-30T06:10:09;13.00;;;11.67;;
59770;SDS011;45649;53.014;6.600;2023-08-30T06:12:36;12.20;;;11.03;;
59770;SDS011;45649;53.014;6.600;2023-08-30T06:15:02;13.37;;;12.07;;
59770;SDS011;45649;53.014;6.600;2023-08-30T06:17:28;12.90;;;11.60;;
59770;SDS011;45649;53.014;6.600;2023-08-30T06:19:55;12.17;;;11.07;;
59770;SDS011;45649;53.014;6.600;2023-08-30T06:22:21;12.37;;;11.17;;
59770;SDS011;45649;53.014;6.600;2023-08-30T06:24:47;13.30;;;11.93;;
59770;SDS011;45649;53.014;6.600;2023-08-30T06:27:13;13.13;;;11.83;;
59770;SDS011;45649;53.014;6.600;2023-08-30T06:29:40;13.00;;;11.70;;
59770;SDS011;45649;53.014;6.600;2023-08-30T06:32:06;13.23;;;11.97;;
59770;SDS011;45649;53.014;6.600;2023-08-30T06:34:32;12.10;;;10.97;;
59770;SDS011;45649;53.014;6.600;2023-08-30T06:36:58;12.97;;;11.77;;
59770;SDS011;45649;53.014;6.600;2023-08-30T06:39:24;13.87;;;12.57;;
59770;SDS011;45649;53.014;6.600;2023-08-30T06:41:50;12.70;;;11.40;;
59770;SDS011;45649;53.014;6.600;2023-08-30T06:44:17;13.30;;;11.93;;
59770;SDS011;45649;53.014;6.600;2023-08-30T06:46:43;12.30;;;11.13;;
59770;SDS011;45649;53.014;6.600;2023-08-30T06:49:09;11.77;;;10.67;;
59770;SDS011;45649;53.014;6.600;2023-08-30T06:51:36;13.43;;;12.10;;
59770;SDS011;45649;53.014;6.600;2023-08-30T06:54:02;12.90;;;11.67;;
59770;SDS011;45649;53.014;6.600;2023-08-30T06:56:28;13.03;;;11.67;;
59770;SDS011;45649;53.014;6.600;2023-08-30T06:58:54;13.07;;;11.90;;
59770;SDS011;45649;53.014;6.600;2023-08-30T07:01:20;12.57;;;11.37;;
59770;SDS011;45649;53.014;6.600;2023-08-30T07:03:46;13.97;;;12.47;;
59770;SDS011;45649;53.014;6.600;2023-08-30T07:06:13;13.03;;;11.67;;
59770;SDS011;45649;53.014;6.600;2023-08-30T07:08:39;13.23;;;11.40;;
59770;SDS011;45649;53.014;6.600;2023-08-30T07:11:05;13.17;;;11.87;;
59770;SDS011;45649;53.014;6.600;2023-08-30T07:13:31;14.50;;;13.10;;
59770;SDS011;45649;53.014;6.600;2023-08-30T07:15:57;13.37;;;11.97;;
59770;SDS011;45649;53.014;6.600;2023-08-30T07:18:23;13.43;;;12.03;;
59770;SDS011;45649;53.014;6.600;2023-08-30T07:20:49;13.60;;;12.40;;
59770;SDS011;45649;53.014;6.600;2023-08-30T07:23:15;13.37;;;12.03;;
59770;SDS011;45649;53.014;6.600;2023-08-30T07:25:41;14.37;;;12.63;;
59770;SDS011;45649;53.014;6.600;2023-08-30T07:28:08;14.80;;;13.00;;
59770;SDS011;45649;53.014;6.600;2023-08-30T07:30:34;13.20;;;11.90;;
59770;SDS011;45649;53.014;6.600;2023-08-30T07:33:00;12.40;;;11.10;;
59770;SDS011;45649;53.014;6.600;2023-08-30T07:35:26;12.43;;;11.27;;
59770;SDS011;45649;53.014;6.600;2023-08-30T07:37:52;13.30;;;12.10;;
59770;SDS011;45649;53.014;6.600;2023-08-30T07:40:18;14.23;;;11.23;;
59770;SDS011;45649;53.014;6.600;2023-08-30T07:42:45;13.13;;;11.77;;
59770;SDS011;45649;53.014;6.600;2023-08-30T07:45:12;12.43;;;11.23;;
59770;SDS011;45649;53.014;6.600;2023-08-30T07:47:38;12.80;;;11.50;;
59770;SDS011;45649;53.014;6.600;2023-08-30T07:50:04;13.10;;;11.70;;
59770;SDS011;45649;53.014;6.600;2023-08-30T07:52:31;12.40;;;11.20;;
59770;SDS011;45649;53.014;6.600;2023-08-30T07:54:57;12.13;;;10.93;;
59770;SDS011;45649;53.014;6.600;2023-08-30T07:57:23;12.40;;;11.20;;
59770;SDS011;45649;53.014;6.600;2023-08-30T07:59:49;11.60;;;10.40;;
59770;SDS011;45649;53.014;6.600;2023-08-30T08:02:15;11.43;;;10.23;;
59770;SDS011;45649;53.014;6.600;2023-08-30T08:04:41;12.33;;;10.73;;
59770;SDS011;45649;53.014;6.600;2023-08-30T08:07:08;13.20;;;11.83;;
59770;SDS011;45649;53.014;6.600;2023-08-30T08:09:34;13.97;;;11.90;;
59770;SDS011;45649;53.014;6.600;2023-08-30T08:12:00;12.20;;;11.00;;
59770;SDS011;45649;53.014;6.600;2023-08-30T08:14:26;12.40;;;11.20;;
59770;SDS011;45649;53.014;6.600;2023-08-30T08:16:52;12.20;;;10.97;;
59770;SDS011;45649;53.014;6.600;2023-08-30T08:19:18;13.20;;;11.20;;
59770;SDS011;45649;53.014;6.600;2023-08-30T08:21:46;13.07;;;11.33;;
59770;SDS011;45649;53.014;6.600;2023-08-30T08:24:12;12.63;;;11.33;;
59770;SDS011;45649;53.014;6.600;2023-08-30T08:26:38;12.63;;;11.43;;
59770;SDS011;45649;53.014;6.600;2023-08-30T08:29:04;12.73;;;11.33;;
59770;SDS011;45649;53.014;6.600;2023-08-30T08:31:30;12.17;;;11.00;;
59770;SDS011;45649;53.014;6.600;2023-08-30T08:34:07;12.30;;;11.10;;
59770;SDS011;45649;53.014;6.600;2023-08-30T08:36:33;12.43;;;10.67;;
59770;SDS011;45649;53.014;6.600;2023-08-30T08:38:59;12.40;;;10.77;;
59770;SDS011;45649;53.014;6.600;2023-08-30T08:41:26;11.43;;;10.23;;
59770;SDS011;45649;53.014;6.600;2023-08-30T08:43:56;12.70;;;9.90;;
59770;SDS011;45649;53.014;6.600;2023-08-30T08:46:23;11.60;;;10.50;;
59770;SDS011;45649;53.014;6.600;2023-08-30T08:48:50;12.10;;;10.90;;
59770;SDS011;45649;53.014;6.600;2023-08-30T08:51:16;11.60;;;10.40;;
59770;SDS011;45649;53.014;6.600;2023-08-30T08:53:43;12.43;;;10.43;;
59770;SDS011;45649;53.014;6.600;2023-08-30T08:56:09;13.23;;;10.87;;
59770;SDS011;45649;53.014;6.600;2023-08-30T08:58:36;13.87;;;11.23;;
59770;SDS011;45649;53.014;6.600;2023-08-30T09:01:03;12.87;;;10.97;;
59770;SDS011;45649;53.014;6.600;2023-08-30T09:03:32;11.73;;;10.53;;
59770;SDS011;45649;53.014;6.600;2023-08-30T09:05:59;12.27;;;11.07;;
59770;SDS011;45649;53.014;6.600;2023-08-30T09:08:26;10.30;;;9.40;;
59770;SDS011;45649;53.014;6.600;2023-08-30T09:10:52;11.70;;;10.50;;
59770;SDS011;45649;53.014;6.600;2023-08-30T09:13:19;12.47;;;11.17;;
59770;SDS011;45649;53.014;6.600;2023-08-30T09:15:47;10.47;;;9.37;;
59770;SDS011;45649;53.014;6.600;2023-08-30T09:18:14;11.47;;;10.27;;
59770;SDS011;45649;53.014;6.600;2023-08-30T09:20:41;11.20;;;10.00;;
59770;SDS011;45649;53.014;6.600;2023-08-30T09:23:15;10.90;;;9.90;;
59770;SDS011;45649;53.014;6.600;2023-08-30T09:25:42;11.60;;;10.17;;
59770;SDS011;45649;53.014;6.600;2023-08-30T09:28:10;10.70;;;9.70;;
59770;SDS011;45649;53.014;6.600;2023-08-30T09:30:36;11.10;;;10.00;;
59770;SDS011;45649;53.014;6.600;2023-08-30T09:33:02;10.67;;;9.53;;
59770;SDS011;45649;53.014;6.600;2023-08-30T09:35:28;12.25;;;11.05;;
59770;SDS011;45649;53.014;6.600;2023-08-30T09:37:54;13.07;;;9.97;;
59770;SDS011;45649;53.014;6.600;2023-08-30T09:40:20;10.80;;;9.80;;
59770;SDS011;45649;53.014;6.600;2023-08-30T09:42:47;10.90;;;9.80;;
59770;SDS011;45649;53.014;6.600;2023-08-30T09:45:21;10.77;;;9.77;;
59770;SDS011;45649;53.014;6.600;2023-08-30T09:47:48;10.53;;;9.53;;
59770;SDS011;45649;53.014;6.600;2023-08-30T09:50:18;12.10;;;10.90;;
59770;SDS011;45649;53.014;6.600;2023-08-30T09:52:45;13.93;;;10.93;;
59770;SDS011;45649;53.014;6.600;2023-08-30T09:55:12;12.10;;;10.90;;
59770;SDS011;45649;53.014;6.600;2023-08-30T09:57:38;16.77;;;11.43;;
59770;SDS011;45649;53.014;6.600;2023-08-30T10:00:05;12.03;;;10.83;;
59770;SDS011;45649;53.014;6.600;2023-08-30T10:02:32;12.00;;;10.43;;
59770;SDS011;45649;53.014;6.600;2023-08-30T10:04:58;13.07;;;11.67;;
59770;SDS011;45649;53.014;6.600;2023-08-30T10:07:24;12.63;;;11.47;;
59770;SDS011;45649;53.014;6.600;2023-08-30T10:09:51;13.27;;;11.63;;
59770;SDS011;45649;53.014;6.600;2023-08-30T10:12:20;13.43;;;11.87;;
59770;SDS011;45649;53.014;6.600;2023-08-30T10:14:47;13.00;;;11.60;;
59770;SDS011;45649;53.014;6.600;2023-08-30T10:17:14;13.83;;;11.10;;
59770;SDS011;45649;53.014;6.600;2023-08-30T10:19:40;11.40;;;10.40;;
59770;SDS011;45649;53.014;6.600;2023-08-30T10:22:07;10.43;;;9.43;;
59770;SDS011;45649;53.014;6.600;2023-08-30T10:24:46;9.47;;;8.57;;
59770;SDS011;45649;53.014;6.600;2023-08-30T10:27:14;7.20;;;6.57;;
59770;SDS011;45649;53.014;6.600;2023-08-30T10:29:40;7.23;;;6.53;;
59770;SDS011;45649;53.014;6.600;2023-08-30T10:32:07;6.27;;;5.67;;
59770;SDS011;45649;53.014;6.600;2023-08-30T10:34:37;5.87;;;5.37;;
59770;SDS011;45649;53.014;6.600;2023-08-30T10:37:05;6.00;;;5.50;;
59770;SDS011;45649;53.014;6.600;2023-08-30T10:39:39;6.40;;;5.80;;
59770;SDS011;45649;53.014;6.600;2023-08-30T10:44:34;7.87;;;7.27;;
59770;SDS011;45649;53.014;6.600;2023-08-30T10:47:02;8.53;;;7.83;;
59770;SDS011;45649;53.014;6.600;2023-08-30T10:49:29;8.67;;;7.77;;
59770;SDS011;45649;53.014;6.600;2023-08-30T10:51:59;9.57;;;8.63;;
59770;SDS011;45649;53.014;6.600;2023-08-30T10:54:36;9.30;;;8.47;;
59770;SDS011;45649;53.014;6.600;2023-08-30T10:57:02;9.80;;;8.90;;
59770;SDS011;45649;53.014;6.600;2023-08-30T10:59:28;8.57;;;7.83;;
59770;SDS011;45649;53.014;6.600;2023-08-30T11:01:55;9.30;;;8.40;;
59770;SDS011;45649;53.014;6.600;2023-08-30T11:04:21;9.37;;;8.57;;
59770;SDS011;45649;53.014;6.600;2023-08-30T11:06:48;10.17;;;9.07;;
59770;SDS011;45649;53.014;6.600;2023-08-30T11:09:19;10.23;;;9.27;;
59770;SDS011;45649;53.014;6.600;2023-08-30T11:11:45;10.53;;;9.40;;
59770;SDS011;45649;53.014;6.600;2023-08-30T11:14:12;10.30;;;9.40;;
59770;SDS011;45649;53.014;6.600;2023-08-30T11:16:38;11.07;;;10.07;;
59770;SDS011;45649;53.014;6.600;2023-08-30T11:19:05;11.40;;;9.70;;
59770;SDS011;45649;53.014;6.600;2023-08-30T11:21:32;10.87;;;9.87;;
59770;SDS011;45649;53.014;6.600;2023-08-30T11:23:58;10.97;;;9.97;;
59770;SDS011;45649;53.014;6.600;2023-08-30T11:26:25;10.17;;;9.27;;
59770;SDS011;45649;53.014;6.600;2023-08-30T11:28:51;10.50;;;9.40;;
59770;SDS011;45649;53.014;6.600;2023-08-30T11:31:21;10.10;;;9.20;;
59770;SDS011;45649;53.014;6.600;2023-08-30T11:33:54;10.67;;;9.77;;
59770;SDS011;45649;53.014;6.600;2023-08-30T11:36:26;10.37;;;9.57;;
59770;SDS011;45649;53.014;6.600;2023-08-30T11:38:52;10.97;;;9.97;;
59770;SDS011;45649;53.014;6.600;2023-08-30T11:41:19;11.87;;;10.60;;
59770;SDS011;45649;53.014;6.600;2023-08-30T11:43:49;13.67;;;12.27;;
59770;SDS011;45649;53.014;6.600;2023-08-30T11:46:19;11.53;;;10.47;;
59770;SDS011;45649;53.014;6.600;2023-08-30T11:48:46;11.33;;;10.27;;
59770;SDS011;45649;53.014;6.600;2023-08-30T11:51:12;11.17;;;10.17;;
59770;SDS011;45649;53.014;6.600;2023-08-30T11:53:39;10.53;;;9.53;;
59770;SDS011;45649;53.014;6.600;2023-08-30T11:56:05;11.33;;;10.33;;
59770;SDS011;45649;53.014;6.600;2023-08-30T11:58:32;10.10;;;9.20;;
59770;SDS011;45649;53.014;6.600;2023-08-30T12:00:59;10.40;;;9.43;;
59770;SDS011;45649;53.014;6.600;2023-08-30T12:03:28;11.07;;;10.03;;
59770;SDS011;45649;53.014;6.600;2023-08-30T12:05:55;10.63;;;9.73;;
59770;SDS011;45649;53.014;6.600;2023-08-30T12:08:30;10.00;;;9.17;;
59770;SDS011;45649;53.014;6.600;2023-08-30T12:10:57;11.27;;;10.27;;
59770;SDS011;45649;53.014;6.600;2023-08-30T12:15:50;10.73;;;9.83;;
59770;SDS011;45649;53.014;6.600;2023-08-30T12:18:16;10.97;;;10.07;;
59770;SDS011;45649;53.014;6.600;2023-08-30T12:20:59;10.83;;;9.93;;
59770;SDS011;45649;53.014;6.600;2023-08-30T12:23:25;11.97;;;10.23;;
59770;SDS011;45649;53.014;6.600;2023-08-30T12:28:29;10.93;;;9.97;;
59770;SDS011;45649;53.014;6.600;2023-08-30T12:30:55;10.40;;;9.50;;
59770;SDS011;45649;53.014;6.600;2023-08-30T12:33:21;10.83;;;9.93;;
59770;SDS011;45649;53.014;6.600;2023-08-30T12:35:48;8.93;;;8.23;;
59770;SDS011;45649;53.014;6.600;2023-08-30T12:38:14;8.83;;;8.13;;
59770;SDS011;45649;53.014;6.600;2023-08-30T12:40:45;9.30;;;8.60;;
59770;SDS011;45649;53.014;6.600;2023-08-30T12:43:12;9.20;;;8.40;;
59770;SDS011;45649;53.014;6.600;2023-08-30T12:45:39;8.67;;;8.07;;
59770;SDS011;45649;53.014;6.600;2023-08-30T12:48:05;7.90;;;7.30;;
59770;SDS011;45649;53.014;6.600;2023-08-30T12:50:31;8.20;;;7.50;;
59770;SDS011;45649;53.014;6.600;2023-08-30T12:52:57;8.47;;;7.77;;
59770;SDS011;45649;53.014;6.600;2023-08-30T12:55:24;8.13;;;7.53;;
59770;SDS011;45649;53.014;6.600;2023-08-30T12:57:50;8.30;;;7.60;;
59770;SDS011;45649;53.014;6.600;2023-08-30T13:00:16;7.30;;;6.70;;
59770;SDS011;45649;53.014;6.600;2023-08-30T13:02:42;7.67;;;7.07;;
59770;SDS011;45649;53.014;6.600;2023-08-30T13:05:08;7.37;;;6.80;;
59770;SDS011;45649;53.014;6.600;2023-08-30T13:07:34;7.90;;;7.30;;
59770;SDS011;45649;53.014;6.600;2023-08-30T13:10:00;8.03;;;7.33;;
59770;SDS011;45649;53.014;6.600;2023-08-30T13:12:26;8.43;;;7.73;;
59770;SDS011;45649;53.014;6.600;2023-08-30T13:14:52;8.90;;;8.20;;
59770;SDS011;45649;53.014;6.600;2023-08-30T13:17:18;8.40;;;7.70;;
59770;SDS011;45649;53.014;6.600;2023-08-30T13:19:44;7.87;;;7.30;;
59770;SDS011;45649;53.014;6.600;2023-08-30T13:22:10;8.30;;;7.60;;
59770;SDS011;45649;53.014;6.600;2023-08-30T13:24:37;8.03;;;7.40;;
59770;SDS011;45649;53.014;6.600;2023-08-30T13:27:03;8.00;;;7.30;;
59770;SDS011;45649;53.014;6.600;2023-08-30T13:29:30;8.10;;;7.40;;
59770;SDS011;45649;53.014;6.600;2023-08-30T13:31:56;8.07;;;7.47;;
59770;SDS011;45649;53.014;6.600;2023-08-30T13:34:22;8.27;;;7.57;;
59770;SDS011;45649;53.014;6.600;2023-08-30T13:36:48;7.27;;;6.57;;
59770;SDS011;45649;53.014;6.600;2023-08-30T13:39:14;7.40;;;6.80;;
59770;SDS011;45649;53.014;6.600;2023-08-30T13:41:41;7.83;;;7.13;;
59770;SDS011;45649;53.014;6.600;2023-08-30T13:44:07;8.30;;;7.53;;
59770;SDS011;45649;53.014;6.600;2023-08-30T13:46:33;7.40;;;6.80;;
59770;SDS011;45649;53.014;6.600;2023-08-30T13:48:59;6.67;;;6.17;;
59770;SDS011;45649;53.014;6.600;2023-08-30T13:51:25;8.83;;;6.70;;
59770;SDS011;45649;53.014;6.600;2023-08-30T13:53:52;11.30;;;7.90;;
59770;SDS011;45649;53.014;6.600;2023-08-30T13:56:18;20.20;;;8.97;;
59770;SDS011;45649;53.014;6.600;2023-08-30T13:58:45;6.30;;;5.80;;
59770;SDS011;45649;53.014;6.600;2023-08-30T14:01:11;6.57;;;5.97;;
59770;SDS011;45649;53.014;6.600;2023-08-30T14:03:37;5.63;;;5.23;;
59770;SDS011;45649;53.014;6.600;2023-08-30T14:06:04;7.30;;;5.67;;
59770;SDS011;45649;53.014;6.600;2023-08-30T14:08:30;5.70;;;5.27;;
59770;SDS011;45649;53.014;6.600;2023-08-30T14:10:56;5.73;;;5.33;;
59770;SDS011;45649;53.014;6.600;2023-08-30T14:13:23;4.70;;;4.40;;
59770;SDS011;45649;53.014;6.600;2023-08-30T14:15:49;5.67;;;5.30;;
59770;SDS011;45649;53.014;6.600;2023-08-30T14:18:15;5.80;;;5.40;;
59770;SDS011;45649;53.014;6.600;2023-08-30T14:20:41;5.40;;;5.00;;
59770;SDS011;45649;53.014;6.600;2023-08-30T14:23:08;5.40;;;5.00;;
59770;SDS011;45649;53.014;6.600;2023-08-30T14:25:34;5.10;;;4.80;;
59770;SDS011;45649;53.014;6.600;2023-08-30T14:28:00;4.87;;;4.57;;
59770;SDS011;45649;53.014;6.600;2023-08-30T14:30:27;6.10;;;5.57;;
59770;SDS011;45649;53.014;6.600;2023-08-30T14:32:53;6.00;;;5.60;;
59770;SDS011;45649;53.014;6.600;2023-08-30T14:35:19;5.73;;;5.33;;
59770;SDS011;45649;53.014;6.600;2023-08-30T14:37:46;6.00;;;5.60;;